Route Details

Aircraft Information
Group: European Fleet
Types: A30F, A31F, B738
Route Data
Distance: 317nm
Duration: 1h 00m
Origin METAR: LOWL 100420Z AUTO VRB01KT 4100 BR FEW026 00/M00 Q1004 NOSIG
Dest. METAR: EDDK 100420Z AUTO 04003KT 9000 OVC021 M02/M04 Q1008 NOSIG
Freight Data
(for Dec 10, 2022)
Load Factor:
46%
Manifested Cargo: 45,078lbs
Financial History
Total Freight: 276,815lbs
Average Load: 0lbs/flt
Fuel Used: 51,134lbs
Avg. Fuel Used: 0lbs/flt
Fuel Expense: $25,867
Avg. Fuel Expense: $0
Avg. Fuel Cost: $0/lbs
Total Gross Income: $636,675
Pilot Pay: $1,125
Total Expenses: $135,110
Total Revenue: $473,376
Average Revenue: $0

Capitol Logistics 533




LOWL
Linz Hörsching Airport
Linz, AT
EDDK
Cologne Bonn Airport
Cologne, DE

Activity Log

Date Flight Route Aircraft Duration
10/16/2022 CPX533 LIDS1E LIDSI DCT SUBEN T161 ERNAS Y101 OSBIT L984 ASKIK T840 GULKO GULK14 A30F 1h 15m
09/23/2022 CPX533 Not Available B738 1h 23m
09/12/2022 CPX533 Not Available B738 1h 12m
07/19/2022 CPX533 LIDSI1E LIDSI LAMSI L604 DEMAB T842 EBANA T841 ERNEP KOPAG KOPAG14 B738 1h 15m
07/19/2022 CPX533 LIDS1E LIDSI DCT LAMSI L604 DEMAB T842 EBANA T841 ERNEP DCT KOPAG KOPA14 A30F 1h 18m